sensor_id;sensor_type;location;lat;lon;timestamp;pressure;altitude;pressure_sealevel;temperature;humidity
38716;BME280;24833;49.324;8.694;2023-11-22T00:00:28;100269.03;;;7.59;100.00
38716;BME280;24833;49.324;8.694;2023-11-22T00:02:55;100274.69;;;7.56;100.00
38716;BME280;24833;49.324;8.694;2023-11-22T00:05:22;100282.31;;;7.51;100.00
38716;BME280;24833;49.324;8.694;2023-11-22T00:07:50;100286.28;;;7.47;100.00
38716;BME280;24833;49.324;8.694;2023-11-22T00:10:16;100287.63;;;7.43;100.00
38716;BME280;24833;49.324;8.694;2023-11-22T00:12:45;100290.59;;;7.40;100.00
38716;BME280;24833;49.324;8.694;2023-11-22T00:15:12;100292.75;;;7.36;100.00
38716;BME280;24833;49.324;8.694;2023-11-22T00:17:47;100297.53;;;7.32;100.00
38716;BME280;24833;49.324;8.694;2023-11-22T00:20:15;100303.19;;;7.29;100.00
38716;BME280;24833;49.324;8.694;2023-11-22T00:22:44;100313.28;;;7.26;100.00
38716;BME280;24833;49.324;8.694;2023-11-22T00:25:12;100311.09;;;7.21;100.00
38716;BME280;24833;49.324;8.694;2023-11-22T00:27:41;100312.28;;;7.19;100.00
38716;BME280;24833;49.324;8.694;2023-11-22T00:30:08;100317.06;;;7.15;100.00
38716;BME280;24833;49.324;8.694;2023-11-22T00:32:36;100322.69;;;7.12;100.00
38716;BME280;24833;49.324;8.694;2023-11-22T00:35:04;100322.16;;;7.08;100.00
38716;BME280;24833;49.324;8.694;2023-11-22T00:37:31;100326.00;;;7.06;100.00
38716;BME280;24833;49.324;8.694;2023-11-22T00:39:58;100335.94;;;7.04;100.00
38716;BME280;24833;49.324;8.694;2023-11-22T00:42:27;100330.94;;;7.01;100.00
38716;BME280;24833;49.324;8.694;2023-11-22T00:44:54;100345.19;;;7.00;100.00
38716;BME280;24833;49.324;8.694;2023-11-22T00:47:21;100352.81;;;6.95;100.00
38716;BME280;24833;49.324;8.694;2023-11-22T00:49:49;100365.41;;;6.93;100.00
38716;BME280;24833;49.324;8.694;2023-11-22T00:52:16;100356.94;;;6.89;100.00
38716;BME280;24833;49.324;8.694;2023-11-22T00:54:43;100370.69;;;6.85;100.00
38716;BME280;24833;49.324;8.694;2023-11-22T00:57:11;100374.78;;;6.79;100.00
38716;BME280;24833;49.324;8.694;2023-11-22T00:59:38;100365.63;;;6.73;100.00
38716;BME280;24833;49.324;8.694;2023-11-22T01:02:06;100368.75;;;6.69;100.00
38716;BME280;24833;49.324;8.694;2023-11-22T01:04:35;100385.31;;;6.63;100.00
38716;BME280;24833;49.324;8.694;2023-11-22T01:07:04;100379.78;;;6.56;100.00
38716;BME280;24833;49.324;8.694;2023-11-22T01:09:32;100380.38;;;6.50;100.00
38716;BME280;24833;49.324;8.694;2023-11-22T01:12:00;100381.00;;;6.44;100.00
38716;BME280;24833;49.324;8.694;2023-11-22T01:14:27;100385.09;;;6.38;100.00
38716;BME280;24833;49.324;8.694;2023-11-22T01:16:55;100387.53;;;6.32;100.00
38716;BME280;24833;49.324;8.694;2023-11-22T01:19:22;100395.09;;;6.26;100.00
38716;BME280;24833;49.324;8.694;2023-11-22T01:21:49;100393.59;;;6.24;100.00
38716;BME280;24833;49.324;8.694;2023-11-22T01:24:16;100397.69;;;6.18;100.00
38716;BME280;24833;49.324;8.694;2023-11-22T01:26:44;100396.47;;;6.13;100.00
38716;BME280;24833;49.324;8.694;2023-11-22T01:29:11;100403.91;;;6.09;100.00
38716;BME280;24833;49.324;8.694;2023-11-22T01:31:41;100401.53;;;6.06;100.00
38716;BME280;24833;49.324;8.694;2023-11-22T01:34:09;100398.38;;;6.03;100.00
38716;BME280;24833;49.324;8.694;2023-11-22T01:36:42;100396.84;;;6.00;100.00
38716;BME280;24833;49.324;8.694;2023-11-22T01:39:13;100397.97;;;5.97;100.00
38716;BME280;24833;49.324;8.694;2023-11-22T01:41:44;100390.47;;;5.93;100.00
38716;BME280;24833;49.324;8.694;2023-11-22T01:44:11;100395.94;;;5.91;100.00
38716;BME280;24833;49.324;8.694;2023-11-22T01:46:39;100412.09;;;5.88;100.00
38716;BME280;24833;49.324;8.694;2023-11-22T01:49:06;100410.72;;;5.84;100.00
38716;BME280;24833;49.324;8.694;2023-11-22T01:51:34;100414.38;;;5.83;100.00
38716;BME280;24833;49.324;8.694;2023-11-22T01:54:01;100423.44;;;5.81;100.00
38716;BME280;24833;49.324;8.694;2023-11-22T01:56:29;100424.72;;;5.77;100.00
38716;BME280;24833;49.324;8.694;2023-11-22T01:58:58;100430.31;;;5.73;100.00
38716;BME280;24833;49.324;8.694;2023-11-22T02:01:30;100427.97;;;5.70;100.00
38716;BME280;24833;49.324;8.694;2023-11-22T02:03:59;100430.22;;;5.65;100.00
38716;BME280;24833;49.324;8.694;2023-11-22T02:06:30;100434.84;;;5.63;100.00
38716;BME280;24833;49.324;8.694;2023-11-22T02:09:01;100433.44;;;5.59;100.00
38716;BME280;24833;49.324;8.694;2023-11-22T02:11:31;100433.88;;;5.55;100.00
38716;BME280;24833;49.324;8.694;2023-11-22T02:13:58;100436.00;;;5.51;100.00
38716;BME280;24833;49.324;8.694;2023-11-22T02:16:28;100436.28;;;5.48;100.00
38716;BME280;24833;49.324;8.694;2023-11-22T02:18:57;100444.69;;;5.43;100.00
38716;BME280;24833;49.324;8.694;2023-11-22T02:21:24;100450.41;;;5.39;100.00
38716;BME280;24833;49.324;8.694;2023-11-22T02:23:51;100457.81;;;5.35;100.00
38716;BME280;24833;49.324;8.694;2023-11-22T02:26:18;100459.91;;;5.32;100.00
38716;BME280;24833;49.324;8.694;2023-11-22T02:28:46;100454.06;;;5.28;100.00
38716;BME280;24833;49.324;8.694;2023-11-22T02:31:13;100454.50;;;5.24;100.00
38716;BME280;24833;49.324;8.694;2023-11-22T02:33:40;100465.38;;;5.20;100.00
38716;BME280;24833;49.324;8.694;2023-11-22T02:36:08;100463.03;;;5.17;100.00
38716;BME280;24833;49.324;8.694;2023-11-22T02:38:39;100476.53;;;5.14;100.00
38716;BME280;24833;49.324;8.694;2023-11-22T02:41:07;100486.59;;;5.11;100.00
38716;BME280;24833;49.324;8.694;2023-11-22T02:43:36;100491.31;;;5.07;100.00
38716;BME280;24833;49.324;8.694;2023-11-22T02:46:03;100498.72;;;5.04;100.00
38716;BME280;24833;49.324;8.694;2023-11-22T02:48:30;100507.75;;;5.01;100.00
38716;BME280;24833;49.324;8.694;2023-11-22T02:50:57;100500.13;;;4.98;100.00
38716;BME280;24833;49.324;8.694;2023-11-22T02:53:24;100501.38;;;4.94;100.00
38716;BME280;24833;49.324;8.694;2023-11-22T02:55:51;100500.00;;;4.90;100.00
38716;BME280;24833;49.324;8.694;2023-11-22T02:58:20;100501.09;;;4.87;100.00
38716;BME280;24833;49.324;8.694;2023-11-22T03:00:47;100503.47;;;4.81;100.00
38716;BME280;24833;49.324;8.694;2023-11-22T03:03:15;100502.09;;;4.77;100.00
38716;BME280;24833;49.324;8.694;2023-11-22T03:05:42;100502.50;;;4.72;100.00
38716;BME280;24833;49.324;8.694;2023-11-22T03:08:09;100510.84;;;4.68;100.00
38716;BME280;24833;49.324;8.694;2023-11-22T03:10:38;100505.16;;;4.62;100.00
38716;BME280;24833;49.324;8.694;2023-11-22T03:13:05;100496.78;;;4.57;100.00
38716;BME280;24833;49.324;8.694;2023-11-22T03:15:35;100503.31;;;4.53;100.00
38716;BME280;24833;49.324;8.694;2023-11-22T03:18:03;100511.69;;;4.49;100.00
38716;BME280;24833;49.324;8.694;2023-11-22T03:20:32;100513.06;;;4.43;100.00
38716;BME280;24833;49.324;8.694;2023-11-22T03:22:59;100505.53;;;4.38;100.00
38716;BME280;24833;49.324;8.694;2023-11-22T03:25:28;100516.66;;;4.32;100.00
38716;BME280;24833;49.324;8.694;2023-11-22T03:27:55;100535.56;;;4.28;100.00
38716;BME280;24833;49.324;8.694;2023-11-22T03:30:22;100528.91;;;4.24;100.00
38716;BME280;24833;49.324;8.694;2023-11-22T03:32:49;100533.59;;;4.20;100.00
38716;BME280;24833;49.324;8.694;2023-11-22T03:35:17;100542.78;;;4.16;100.00
38716;BME280;24833;49.324;8.694;2023-11-22T03:37:44;100548.47;;;4.12;100.00
38716;BME280;24833;49.324;8.694;2023-11-22T03:40:12;100557.63;;;4.07;100.00
38716;BME280;24833;49.324;8.694;2023-11-22T03:42:41;100556.09;;;4.05;100.00
38716;BME280;24833;49.324;8.694;2023-11-22T03:45:08;100559.13;;;4.00;100.00
38716;BME280;24833;49.324;8.694;2023-11-22T03:47:36;100566.38;;;3.98;100.00
38716;BME280;24833;49.324;8.694;2023-11-22T03:50:06;100558.84;;;3.94;100.00
38716;BME280;24833;49.324;8.694;2023-11-22T03:52:33;100567.88;;;3.91;100.00
38716;BME280;24833;49.324;8.694;2023-11-22T03:55:00;100565.63;;;3.87;100.00
38716;BME280;24833;49.324;8.694;2023-11-22T03:57:28;100566.75;;;3.84;100.00
38716;BME280;24833;49.324;8.694;2023-11-22T03:59:55;100574.22;;;3.79;100.00
38716;BME280;24833;49.324;8.694;2023-11-22T04:02:22;100579.88;;;3.74;100.00
38716;BME280;24833;49.324;8.694;2023-11-22T04:04:49;100581.13;;;3.70;100.00
38716;BME280;24833;49.324;8.694;2023-11-22T04:07:16;100576.22;;;3.66;100.00
38716;BME280;24833;49.324;8.694;2023-11-22T04:09:43;100578.41;;;3.61;100.00
38716;BME280;24833;49.324;8.694;2023-11-22T04:12:10;100589.41;;;3.56;100.00
38716;BME280;24833;49.324;8.694;2023-11-22T04:14:37;100587.13;;;3.51;100.00
38716;BME280;24833;49.324;8.694;2023-11-22T04:17:04;100592.78;;;3.47;100.00
38716;BME280;24833;49.324;8.694;2023-11-22T04:19:31;100590.44;;;3.44;100.00
38716;BME280;24833;49.324;8.694;2023-11-22T04:21:59;100595.25;;;3.39;100.00
38716;BME280;24833;49.324;8.694;2023-11-22T04:24:26;100591.06;;;3.36;100.00
38716;BME280;24833;49.324;8.694;2023-11-22T04:26:53;100598.53;;;3.31;100.00
38716;BME280;24833;49.324;8.694;2023-11-22T04:29:20;100605.84;;;3.27;100.00
38716;BME280;24833;49.324;8.694;2023-11-22T04:31:47;100619.31;;;3.24;100.00
38716;BME280;24833;49.324;8.694;2023-11-22T04:34:14;100623.28;;;3.19;100.00
38716;BME280;24833;49.324;8.694;2023-11-22T04:36:41;100633.28;;;3.15;100.00
38716;BME280;24833;49.324;8.694;2023-11-22T04:39:08;100647.81;;;3.10;100.00
38716;BME280;24833;49.324;8.694;2023-11-22T04:41:40;100649.75;;;3.08;100.00
38716;BME280;24833;49.324;8.694;2023-11-22T04:44:09;100650.25;;;3.02;100.00
38716;BME280;24833;49.324;8.694;2023-11-22T04:46:36;100653.13;;;2.98;100.00
38716;BME280;24833;49.324;8.694;2023-11-22T04:49:03;100655.28;;;2.93;100.00
38716;BME280;24833;49.324;8.694;2023-11-22T04:51:30;100668.72;;;2.90;100.00
38716;BME280;24833;49.324;8.694;2023-11-22T04:53:59;100665.50;;;2.87;100.00
38716;BME280;24833;49.324;8.694;2023-11-22T04:56:26;100674.50;;;2.84;100.00
38716;BME280;24833;49.324;8.694;2023-11-22T04:58:53;100674.84;;;2.80;100.00
38716;BME280;24833;49.324;8.694;2023-11-22T05:01:20;100678.59;;;2.77;100.00
38716;BME280;24833;49.324;8.694;2023-11-22T05:03:50;100672.72;;;2.73;100.00
38716;BME280;24833;49.324;8.694;2023-11-22T05:06:17;100679.09;;;2.71;100.00
38716;BME280;24833;49.324;8.694;2023-11-22T05:08:44;100674.91;;;2.68;100.00
38716;BME280;24833;49.324;8.694;2023-11-22T05:11:11;100682.19;;;2.65;100.00
38716;BME280;24833;49.324;8.694;2023-11-22T05:13:38;100669.28;;;2.62;100.00
38716;BME280;24833;49.324;8.694;2023-11-22T05:16:06;100677.41;;;2.59;100.00
38716;BME280;24833;49.324;8.694;2023-11-22T05:18:33;100673.09;;;2.58;100.00
38716;BME280;24833;49.324;8.694;2023-11-22T05:21:00;100676.84;;;2.55;100.00
38716;BME280;24833;49.324;8.694;2023-11-22T05:23:27;100671.66;;;2.54;100.00
38716;BME280;24833;49.324;8.694;2023-11-22T05:25:54;100679.00;;;2.50;100.00
38716;BME280;24833;49.324;8.694;2023-11-22T05:28:22;100688.00;;;2.48;100.00
38716;BME280;24833;49.324;8.694;2023-11-22T05:30:49;100687.25;;;2.45;100.00
38716;BME280;24833;49.324;8.694;2023-11-22T05:33:17;100698.03;;;2.42;100.00
38716;BME280;24833;49.324;8.694;2023-11-22T05:35:44;100690.34;;;2.39;100.00
38716;BME280;24833;49.324;8.694;2023-11-22T05:38:11;100687.97;;;2.36;100.00
38716;BME280;24833;49.324;8.694;2023-11-22T05:40:41;100694.44;;;2.32;100.00
38716;BME280;24833;49.324;8.694;2023-11-22T05:43:09;100702.59;;;2.29;100.00
38716;BME280;24833;49.324;8.694;2023-11-22T05:45:39;100701.97;;;2.26;100.00
38716;BME280;24833;49.324;8.694;2023-11-22T05:48:06;100706.53;;;2.24;100.00
38716;BME280;24833;49.324;8.694;2023-11-22T05:50:33;100707.72;;;2.19;100.00
38716;BME280;24833;49.324;8.694;2023-11-22T05:53:00;100716.72;;;2.17;100.00
38716;BME280;24833;49.324;8.694;2023-11-22T05:55:27;100719.56;;;2.14;100.00
38716;BME280;24833;49.324;8.694;2023-11-22T05:57:56;100728.44;;;2.13;100.00
38716;BME280;24833;49.324;8.694;2023-11-22T06:00:23;100737.41;;;2.10;100.00
38716;BME280;24833;49.324;8.694;2023-11-22T06:02:50;100749.97;;;2.07;100.00
38716;BME280;24833;49.324;8.694;2023-11-22T06:05:18;100755.34;;;2.05;100.00
38716;BME280;24833;49.324;8.694;2023-11-22T06:07:45;100751.16;;;2.03;100.00
38716;BME280;24833;49.324;8.694;2023-11-22T06:10:13;100753.19;;;1.99;100.00
38716;BME280;24833;49.324;8.694;2023-11-22T06:12:42;100745.53;;;1.96;100.00
38716;BME280;24833;49.324;8.694;2023-11-22T06:15:11;100751.84;;;1.94;100.00
38716;BME280;24833;49.324;8.694;2023-11-22T06:17:38;100750.41;;;1.89;100.00
38716;BME280;24833;49.324;8.694;2023-11-22T06:20:06;100756.72;;;1.87;100.00
38716;BME280;24833;49.324;8.694;2023-11-22T06:22:34;100755.31;;;1.83;100.00
38716;BME280;24833;49.324;8.694;2023-11-22T06:25:01;100755.53;;;1.80;100.00
38716;BME280;24833;49.324;8.694;2023-11-22T06:27:28;100756.59;;;1.77;100.00
38716;BME280;24833;49.324;8.694;2023-11-22T06:29:56;100759.34;;;1.76;100.00
38716;BME280;24833;49.324;8.694;2023-11-22T06:32:23;100765.91;;;1.70;100.00
38716;BME280;24833;49.324;8.694;2023-11-22T06:34:50;100771.28;;;1.69;100.00
38716;BME280;24833;49.324;8.694;2023-11-22T06:37:18;100768.88;;;1.66;100.00
38716;BME280;24833;49.324;8.694;2023-11-22T06:39:45;100763.00;;;1.62;100.00
38716;BME280;24833;49.324;8.694;2023-11-22T06:42:14;100785.13;;;1.59;100.00
38716;BME280;24833;49.324;8.694;2023-11-22T06:44:41;100789.78;;;1.56;100.00
38716;BME280;24833;49.324;8.694;2023-11-22T06:47:09;100789.16;;;1.52;100.00
38716;BME280;24833;49.324;8.694;2023-11-22T06:49:36;100798.25;;;1.48;100.00
38716;BME280;24833;49.324;8.694;2023-11-22T06:52:04;100800.22;;;1.45;100.00
38716;BME280;24833;49.324;8.694;2023-11-22T06:54:31;100799.63;;;1.41;100.00
38716;BME280;24833;49.324;8.694;2023-11-22T06:56:58;100808.56;;;1.39;100.00
38716;BME280;24833;49.324;8.694;2023-11-22T06:59:25;100800.16;;;1.33;100.00
38716;BME280;24833;49.324;8.694;2023-11-22T07:01:52;100804.69;;;1.31;100.00
38716;BME280;24833;49.324;8.694;2023-11-22T07:04:19;100812.00;;;1.28;100.00
38716;BME280;24833;49.324;8.694;2023-11-22T07:06:46;100818.28;;;1.25;100.00
38716;BME280;24833;49.324;8.694;2023-11-22T07:09:13;100828.81;;;1.25;100.00
38716;BME280;24833;49.324;8.694;2023-11-22T07:11:41;100829.06;;;1.22;100.00
38716;BME280;24833;49.324;8.694;2023-11-22T07:14:08;100831.78;;;1.21;100.00
38716;BME280;24833;49.324;8.694;2023-11-22T07:16:35;100832.84;;;1.18;100.00
38716;BME280;24833;49.324;8.694;2023-11-22T07:19:04;100840.00;;;1.16;100.00
38716;BME280;24833;49.324;8.694;2023-11-22T07:21:33;100837.50;;;1.15;100.00
38716;BME280;24833;49.324;8.694;2023-11-22T07:24:05;100854.31;;;1.12;100.00
38716;BME280;24833;49.324;8.694;2023-11-22T07:26:33;100847.47;;;1.09;100.00
38716;BME280;24833;49.324;8.694;2023-11-22T07:29:00;100842.34;;;1.08;100.00
38716;BME280;24833;49.324;8.694;2023-11-22T07:31:27;100849.47;;;1.06;100.00
38716;BME280;24833;49.324;8.694;2023-11-22T07:33:56;100851.38;;;1.04;100.00
38716;BME280;24833;49.324;8.694;2023-11-22T07:36:23;100847.06;;;1.03;100.00
38716;BME280;24833;49.324;8.694;2023-11-22T07:38:52;100843.72;;;1.01;100.00
38716;BME280;24833;49.324;8.694;2023-11-22T07:41:20;100839.38;;;1.00;100.00
38716;BME280;24833;49.324;8.694;2023-11-22T07:43:48;100841.28;;;0.98;100.00
38716;BME280;24833;49.324;8.694;2023-11-22T07:46:16;100833.41;;;0.98;100.00
38716;BME280;24833;49.324;8.694;2023-11-22T07:48:44;100836.03;;;0.98;100.00
38716;BME280;24833;49.324;8.694;2023-11-22T07:51:13;100830.78;;;0.98;100.00
38716;BME280;24833;49.324;8.694;2023-11-22T07:53:43;100834.13;;;1.00;100.00
38716;BME280;24833;49.324;8.694;2023-11-22T07:56:11;100835.84;;;1.01;100.00
38716;BME280;24833;49.324;8.694;2023-11-22T07:58:38;100829.63;;;1.02;100.00
38716;BME280;24833;49.324;8.694;2023-11-22T08:01:06;100826.75;;;1.05;100.00
38716;BME280;24833;49.324;8.694;2023-11-22T08:03:40;100825.72;;;1.07;100.00
38716;BME280;24833;49.324;8.694;2023-11-22T08:06:16;100821.06;;;1.11;100.00
38716;BME280;24833;49.324;8.694;2023-11-22T08:08:44;100826.97;;;1.15;100.00
38716;BME280;24833;49.324;8.694;2023-11-22T08:11:13;100822.19;;;1.20;100.00
38716;BME280;24833;49.324;8.694;2023-11-22T08:13:44;100825.47;;;1.23;100.00
38716;BME280;24833;49.324;8.694;2023-11-22T08:16:12;100832.09;;;1.29;100.00
38716;BME280;24833;49.324;8.694;2023-11-22T08:18:40;100836.78;;;1.36;100.00
38716;BME280;24833;49.324;8.694;2023-11-22T08:21:10;100843.28;;;1.44;100.00
38716;BME280;24833;49.324;8.694;2023-11-22T08:23:37;100842.84;;;1.50;100.00
38716;BME280;24833;49.324;8.694;2023-11-22T08:26:04;100844.09;;;1.57;100.00
38716;BME280;24833;49.324;8.694;2023-11-22T08:28:32;100850.59;;;1.64;100.00
38716;BME280;24833;49.324;8.694;2023-11-22T08:31:01;100852.53;;;1.73;100.00
38716;BME280;24833;49.324;8.694;2023-11-22T08:33:28;100850.22;;;1.81;100.00
38716;BME280;24833;49.324;8.694;2023-11-22T08:35:55;100848.81;;;1.88;100.00
38716;BME280;24833;49.324;8.694;2023-11-22T08:38:26;100852.53;;;1.97;100.00
38716;BME280;24833;49.324;8.694;2023-11-22T08:40:53;100864.19;;;2.06;100.00
38716;BME280;24833;49.324;8.694;2023-11-22T08:43:22;100869.72;;;2.14;100.00
38716;BME280;24833;49.324;8.694;2023-11-22T08:45:50;100865.56;;;2.23;100.00
38716;BME280;24833;49.324;8.694;2023-11-22T08:48:27;100871.81;;;2.33;100.00
38716;BME280;24833;49.324;8.694;2023-11-22T08:50:54;100882.53;;;2.42;100.00
38716;BME280;24833;49.324;8.694;2023-11-22T08:53:22;100881.09;;;2.50;100.00
38716;BME280;24833;49.324;8.694;2023-11-22T08:55:50;100870.81;;;2.58;100.00
38716;BME280;24833;49.324;8.694;2023-11-22T08:58:17;100864.94;;;2.65;100.00
38716;BME280;24833;49.324;8.694;2023-11-22T09:00:44;100863.41;;;2.74;100.00
38716;BME280;24833;49.324;8.694;2023-11-22T09:03:12;100850.47;;;2.82;100.00
38716;BME280;24833;49.324;8.694;2023-11-22T09:05:40;100853.34;;;2.90;100.00
38716;BME280;24833;49.324;8.694;2023-11-22T09:08:08;100855.25;;;2.99;100.00
38716;BME280;24833;49.324;8.694;2023-11-22T09:10:51;100854.56;;;3.09;100.00
38716;BME280;24833;49.324;8.694;2023-11-22T09:13:18;100853.84;;;3.18;100.00
38716;BME280;24833;49.324;8.694;2023-11-22T09:15:46;100856.81;;;3.24;100.00
38716;BME280;24833;49.324;8.694;2023-11-22T09:18:13;100860.53;;;3.33;100.00
38716;BME280;24833;49.324;8.694;2023-11-22T09:20:42;100868.69;;;3.41;100.00
38716;BME280;24833;49.324;8.694;2023-11-22T09:23:12;100882.94;;;3.50;100.00
38716;BME280;24833;49.324;8.694;2023-11-22T09:25:41;100875.25;;;3.58;100.00
38716;BME280;24833;49.324;8.694;2023-11-22T09:28:08;100885.19;;;3.66;100.00
38716;BME280;24833;49.324;8.694;2023-11-22T09:30:36;100885.41;;;3.74;100.00
38716;BME280;24833;49.324;8.694;2023-11-22T09:33:12;100890.94;;;3.82;100.00
38716;BME280;24833;49.324;8.694;2023-11-22T09:35:43;100893.78;;;3.90;100.00
38716;BME280;24833;49.324;8.694;2023-11-22T09:38:12;100902.91;;;3.97;100.00
38716;BME280;24833;49.324;8.694;2023-11-22T09:40:45;100900.47;;;4.05;100.00
38716;BME280;24833;49.324;8.694;2023-11-22T09:43:14;100893.00;;;4.10;100.00
38716;BME280;24833;49.324;8.694;2023-11-22T09:45:50;100889.03;;;4.16;100.00
38716;BME280;24833;49.324;8.694;2023-11-22T09:48:24;100896.53;;;4.21;100.00
38716;BME280;24833;49.324;8.694;2023-11-22T09:51:17;100901.34;;;4.27;100.00
38716;BME280;24833;49.324;8.694;2023-11-22T09:53:57;100905.41;;;4.31;100.00
38716;BME280;24833;49.324;8.694;2023-11-22T09:56:31;100903.47;;;4.33;100.00
38716;BME280;24833;49.324;8.694;2023-11-22T09:59:00;100910.44;;;4.34;100.00
38716;BME280;24833;49.324;8.694;2023-11-22T10:01:30;100904.19;;;4.35;100.00
38716;BME280;24833;49.324;8.694;2023-11-22T10:03:59;100905.88;;;4.36;100.00
38716;BME280;24833;49.324;8.694;2023-11-22T10:06:26;100906.13;;;4.33;100.00
38716;BME280;24833;49.324;8.694;2023-11-22T10:08:57;100914.03;;;4.33;100.00
38716;BME280;24833;49.324;8.694;2023-11-22T10:11:24;100921.28;;;4.31;100.00
38716;BME280;24833;49.324;8.694;2023-11-22T10:13:51;100923.09;;;4.30;100.00
38716;BME280;24833;49.324;8.694;2023-11-22T10:16:19;100917.94;;;4.29;100.00
38716;BME280;24833;49.324;8.694;2023-11-22T10:18:48;100919.13;;;4.25;100.00
38716;BME280;24833;49.324;8.694;2023-11-22T10:21:29;100911.47;;;4.22;100.00
38716;BME280;24833;49.324;8.694;2023-11-22T10:24:03;100920.34;;;4.21;100.00
38716;BME280;24833;49.324;8.694;2023-11-22T10:26:31;100917.97;;;4.18;100.00
38716;BME280;24833;49.324;8.694;2023-11-22T10:28:59;100922.53;;;4.16;100.00
38716;BME280;24833;49.324;8.694;2023-11-22T10:31:26;100919.16;;;4.14;100.00
38716;BME280;24833;49.324;8.694;2023-11-22T10:33:54;100920.13;;;4.13;100.00
38716;BME280;24833;49.324;8.694;2023-11-22T10:36:25;100921.94;;;4.12;100.00
38716;BME280;24833;49.324;8.694;2023-11-22T10:38:54;100925.56;;;4.11;100.00
38716;BME280;24833;49.324;8.694;2023-11-22T10:41:22;100944.19;;;4.09;100.00
38716;BME280;24833;49.324;8.694;2023-11-22T10:43:52;100956.44;;;4.10;100.00
38716;BME280;24833;49.324;8.694;2023-11-22T10:46:27;100941.53;;;4.09;100.00
38716;BME280;24833;49.324;8.694;2023-11-22T10:48:56;100945.16;;;4.08;100.00
38716;BME280;24833;49.324;8.694;2023-11-22T10:51:32;100945.25;;;4.07;100.00
38716;BME280;24833;49.324;8.694;2023-11-22T10:54:01;100952.25;;;4.08;100.00
38716;BME280;24833;49.324;8.694;2023-11-22T10:56:39;100952.13;;;4.09;100.00
38716;BME280;24833;49.324;8.694;2023-11-22T10:59:13;100960.88;;;4.10;100.00
38716;BME280;24833;49.324;8.694;2023-11-22T11:01:45;100959.06;;;4.10;100.00
38716;BME280;24833;49.324;8.694;2023-11-22T11:04:39;100958.09;;;4.12;100.00
38716;BME280;24833;49.324;8.694;2023-11-22T11:07:12;100954.50;;;4.13;100.00
38716;BME280;24833;49.324;8.694;2023-11-22T11:09:44;100956.16;;;4.14;100.00
38716;BME280;24833;49.324;8.694;2023-11-22T11:12:13;100964.84;;;4.16;100.00
38716;BME280;24833;49.324;8.694;2023-11-22T11:14:41;100964.00;;;4.15;100.00
38716;BME280;24833;49.324;8.694;2023-11-22T11:17:09;100972.75;;;4.16;100.00
38716;BME280;24833;49.324;8.694;2023-11-22T11:19:36;100968.31;;;4.16;100.00
38716;BME280;24833;49.324;8.694;2023-11-22T11:22:07;100968.19;;;4.18;100.00
38716;BME280;24833;49.324;8.694;2023-11-22T11:24:41;100964.56;;;4.19;100.00
38716;BME280;24833;49.324;8.694;2023-11-22T11:27:10;100969.84;;;4.19;100.00
38716;BME280;24833;49.324;8.694;2023-11-22T11:29:37;100970.69;;;4.19;100.00
38716;BME280;24833;49.324;8.694;2023-11-22T11:32:29;100976.81;;;4.20;100.00
38716;BME280;24833;49.324;8.694;2023-11-22T11:34:58;100989.06;;;4.21;100.00
38716;BME280;24833;49.324;8.694;2023-11-22T11:37:29;100993.28;;;4.23;100.00
38716;BME280;24833;49.324;8.694;2023-11-22T11:39:58;100988.00;;;4.23;100.00
38716;BME280;24833;49.324;8.694;2023-11-22T11:42:25;100984.38;;;4.24;100.00
38716;BME280;24833;49.324;8.694;2023-11-22T11:45:06;100984.38;;;4.24;100.00
38716;BME280;24833;49.324;8.694;2023-11-22T11:47:34;100985.22;;;4.25;100.00
38716;BME280;24833;49.324;8.694;2023-11-22T11:50:02;100980.78;;;4.25;100.00
38716;BME280;24833;49.324;8.694;2023-11-22T11:52:29;100987.59;;;4.28;100.00
38716;BME280;24833;49.324;8.694;2023-11-22T11:54:58;100997.25;;;4.29;100.00
38716;BME280;24833;49.324;8.694;2023-11-22T11:57:31;101005.16;;;4.29;100.00
38716;BME280;24833;49.324;8.694;2023-11-22T11:59:58;100999.75;;;4.30;100.00
38716;BME280;24833;49.324;8.694;2023-11-22T12:02:26;100995.28;;;4.31;100.00
38716;BME280;24833;49.324;8.694;2023-11-22T12:04:53;101012.13;;;4.30;100.00
38716;BME280;24833;49.324;8.694;2023-11-22T12:07:21;101019.09;;;4.31;100.00
38716;BME280;24833;49.324;8.694;2023-11-22T12:09:48;101025.34;;;4.30;100.00
38716;BME280;24833;49.324;8.694;2023-11-22T12:12:15;101028.81;;;4.30;100.00
38716;BME280;24833;49.324;8.694;2023-11-22T12:14:42;101020.06;;;4.30;100.00
38716;BME280;24833;49.324;8.694;2023-11-22T12:17:10;101026.19;;;4.30;100.00
38716;BME280;24833;49.324;8.694;2023-11-22T12:19:38;101014.78;;;4.30;100.00
38716;BME280;24833;49.324;8.694;2023-11-22T12:22:05;101013.09;;;4.29;100.00
38716;BME280;24833;49.324;8.694;2023-11-22T12:24:34;101007.91;;;4.27;100.00
38716;BME280;24833;49.324;8.694;2023-11-22T12:27:02;100999.13;;;4.27;100.00
38716;BME280;24833;49.324;8.694;2023-11-22T12:29:29;101001.91;;;4.25;100.00
38716;BME280;24833;49.324;8.694;2023-11-22T12:31:56;100994.94;;;4.24;100.00
38716;BME280;24833;49.324;8.694;2023-11-22T12:34:24;100991.47;;;4.24;100.00
38716;BME280;24833;49.324;8.694;2023-11-22T12:36:52;100977.56;;;4.22;100.00
38716;BME280;24833;49.324;8.694;2023-11-22T12:39:20;100978.50;;;4.21;100.00
38716;BME280;24833;49.324;8.694;2023-11-22T12:41:52;100988.34;;;4.19;100.00
38716;BME280;24833;49.324;8.694;2023-11-22T12:44:47;100973.47;;;4.18;100.00
38716;BME280;24833;49.324;8.694;2023-11-22T12:47:15;100969.84;;;4.19;100.00
38716;BME280;24833;49.324;8.694;2023-11-22T12:49:46;100957.59;;;4.18;100.00
38716;BME280;24833;49.324;8.694;2023-11-22T12:52:13;100963.88;;;4.17;100.00
38716;BME280;24833;49.324;8.694;2023-11-22T12:54:41;100979.72;;;4.17;100.00
38716;BME280;24833;49.324;8.694;2023-11-22T12:57:11;100985.97;;;4.16;100.00